createdAt,value
2023-11-30T00:00:52.222Z,96495.53
2023-11-30T00:04:55.227Z,96484.06
2023-11-30T00:08:58.774Z,96488.22
2023-11-30T00:13:01.749Z,96479.56
2023-11-30T00:17:08.184Z,96473.53
2023-11-30T00:21:11.185Z,96467.53
2023-11-30T00:25:16.799Z,96462.56
2023-11-30T00:29:19.697Z,96452.22
2023-11-30T00:33:24.312Z,96447.75
2023-11-30T00:37:27.307Z,96440.09
2023-11-30T00:41:30.240Z,96449.53
2023-11-30T00:45:33.204Z,96440.19
2023-11-30T00:49:37.565Z,96433.72
2023-11-30T00:53:41.488Z,96432.94
2023-11-30T00:57:44.395Z,96439.06
2023-11-30T01:01:47.517Z,96440.81
2023-11-30T01:05:52.036Z,96452.00
2023-11-30T01:09:55.002Z,96450.22
2023-11-30T01:13:57.891Z,96441.72
2023-11-30T01:18:00.940Z,96431.56
2023-11-30T01:22:06.377Z,96438.50
2023-11-30T01:26:10.257Z,96439.22
2023-11-30T01:30:14.111Z,96436.75
2023-11-30T01:34:17.196Z,96443.69
2023-11-30T01:38:22.645Z,96440.25
2023-11-30T01:42:26.548Z,96442.75
2023-11-30T01:46:30.178Z,96444.25
2023-11-30T01:50:33.407Z,96437.22
2023-11-30T01:54:38.367Z,96425.19
2023-11-30T01:58:42.206Z,96432.94
2023-11-30T02:02:46.514Z,96430.38
2023-11-30T02:06:49.666Z,96427.72
2023-11-30T02:10:54.849Z,96420.59
2023-11-30T02:15:00.321Z,96419.66
2023-11-30T02:19:03.329Z,96425.69
2023-11-30T02:23:09.410Z,96417.00
2023-11-30T02:27:12.819Z,96405.81
2023-11-30T02:31:15.880Z,96399.81
2023-11-30T02:35:18.886Z,96405.00
2023-11-30T02:39:23.240Z,96383.44
2023-11-30T02:43:29.230Z,96386.78
2023-11-30T02:47:32.133Z,96390.03
2023-11-30T02:51:36.258Z,96377.91
2023-11-30T02:55:41.264Z,96364.06
2023-11-30T02:59:44.542Z,96379.41
2023-11-30T03:03:47.507Z,96369.78
2023-11-30T03:07:50.445Z,96360.09
2023-11-30T03:11:54.758Z,96354.09
2023-11-30T03:15:57.755Z,96358.31
2023-11-30T03:20:00.695Z,96360.84
2023-11-30T03:24:03.661Z,96364.72
2023-11-30T03:28:08.763Z,96361.47
2023-11-30T03:32:11.934Z,96357.59
2023-11-30T03:36:15.115Z,96357.94
2023-11-30T03:40:18.265Z,96356.69
2023-11-30T03:44:22.621Z,96350.00
2023-11-30T03:48:26.868Z,96332.84
2023-11-30T03:52:29.927Z,96330.53
2023-11-30T03:56:33.153Z,96336.72
2023-11-30T04:00:37.476Z,96326.75
2023-11-30T04:04:40.617Z,96337.19
2023-11-30T04:08:43.575Z,96329.69
2023-11-30T04:12:46.521Z,96331.72
2023-11-30T04:16:50.884Z,96320.06
2023-11-30T04:20:53.955Z,96307.50
2023-11-30T04:24:57.005Z,96310.09
2023-11-30T04:29:00.618Z,96303.28
2023-11-30T04:33:08.056Z,96316.19
2023-11-30T04:37:11.249Z,96314.69
2023-11-30T04:41:14.406Z,96298.63
2023-11-30T04:45:17.671Z,96289.22
2023-11-30T04:49:22.241Z,96291.06
2023-11-30T04:53:25.757Z,96289.56
2023-11-30T04:57:28.937Z,96272.59
2023-11-30T05:01:34.050Z,96265.97
2023-11-30T05:05:38.693Z,96259.13
2023-11-30T05:09:45.698Z,96254.88
2023-11-30T05:13:50.008Z,96248.78
2023-11-30T05:17:53.208Z,96253.03
2023-11-30T05:21:57.746Z,96257.44
2023-11-30T05:26:00.843Z,96258.22
2023-11-30T05:30:04.649Z,96238.47
2023-11-30T05:34:08.753Z,96236.78
2023-11-30T05:38:13.196Z,96230.16
2023-11-30T05:42:16.312Z,96222.59
2023-11-30T05:46:19.625Z,96211.50
2023-11-30T05:50:22.806Z,96216.69
2023-11-30T05:54:27.326Z,96211.31
2023-11-30T05:58:30.494Z,96208.75
2023-11-30T06:02:34.172Z,96200.81
2023-11-30T06:06:37.320Z,96210.97
2023-11-30T06:10:41.868Z,96210.97
2023-11-30T06:14:45.048Z,96208.22
2023-11-30T06:18:48.163Z,96195.28
2023-11-30T06:22:51.262Z,96178.88
2023-11-30T06:26:57.034Z,96182.19
2023-11-30T06:31:00.771Z,96185.69
2023-11-30T06:35:04.972Z,96176.31
2023-11-30T06:39:09.616Z,96183.28
2023-11-30T06:43:14.092Z,96182.44
2023-11-30T06:47:17.243Z,96179.25
2023-11-30T06:51:20.675Z,96181.72
2023-11-30T06:55:24.288Z,96181.84
2023-11-30T06:59:31.251Z,96174.25
2023-11-30T07:03:42.543Z,96167.41
2023-11-30T07:07:46.688Z,96171.94
2023-11-30T07:11:50.122Z,96172.78
2023-11-30T07:15:54.788Z,96189.94
2023-11-30T07:19:57.934Z,96198.59
2023-11-30T07:24:01.971Z,96191.66
2023-11-30T07:28:05.402Z,96193.34
2023-11-30T07:32:17.970Z,96200.16
2023-11-30T07:36:21.494Z,96199.34
2023-11-30T07:40:24.668Z,96208.94
2023-11-30T07:44:28.930Z,96209.84
2023-11-30T07:48:33.926Z,96206.34
2023-11-30T07:52:38.676Z,96207.09
2023-11-30T07:56:41.981Z,96202.66
2023-11-30T08:00:45.274Z,96192.41
2023-11-30T08:04:49.949Z,96193.34
2023-11-30T08:08:53.200Z,96194.19
2023-11-30T08:12:56.538Z,96194.19
2023-11-30T08:17:00.584Z,96190.00
2023-11-30T08:21:06.559Z,96194.34
2023-11-30T08:25:12.950Z,96189.38
2023-11-30T08:29:16.844Z,96189.28
2023-11-30T08:33:20.135Z,96196.94
2023-11-30T08:37:24.776Z,96195.28
2023-11-30T08:41:28.220Z,96186.81
2023-11-30T08:45:33.431Z,96174.81
2023-11-30T08:49:36.797Z,96168.88
2023-11-30T08:53:41.348Z,96181.09
2023-11-30T08:57:45.155Z,96187.88
2023-11-30T09:01:49.730Z,96179.13
2023-11-30T09:05:53.110Z,96177.38
2023-11-30T09:09:57.855Z,96167.06
2023-11-30T09:14:01.133Z,96165.50
2023-11-30T09:18:05.361Z,96166.31
2023-11-30T09:22:09.186Z,96163.91
2023-11-30T09:26:13.935Z,96170.56
2023-11-30T09:30:17.719Z,96163.72
2023-11-30T09:34:21.046Z,96167.06
2023-11-30T09:38:24.323Z,96160.03
2023-11-30T09:42:30.703Z,96166.69
2023-11-30T09:46:34.230Z,96171.84
2023-11-30T09:50:37.570Z,96161.34
2023-11-30T09:54:41.311Z,96163.00
2023-11-30T09:58:46.094Z,96160.50
2023-11-30T10:02:55.946Z,96169.84
2023-11-30T10:06:59.323Z,96171.50
2023-11-30T10:11:05.077Z,96176.47
2023-11-30T10:15:11.926Z,96166.88
2023-11-30T10:19:18.734Z,96151.38
2023-11-30T10:23:22.943Z,96158.94
2023-11-30T10:27:31.257Z,96154.50
2023-11-30T10:31:37.957Z,96138.09
2023-11-30T10:35:45.724Z,96143.28
2023-11-30T10:39:57.264Z,96138.09
2023-11-30T10:44:01.804Z,96144.91
2023-11-30T10:48:13.983Z,96151.72
2023-11-30T10:52:18.182Z,96132.72
2023-11-30T10:56:23.407Z,96129.41
2023-11-30T11:00:27.179Z,96123.22
2023-11-30T11:04:31.986Z,96117.06
2023-11-30T11:08:35.332Z,96117.06
2023-11-30T11:12:41.376Z,96108.38
2023-11-30T11:16:45.959Z,96102.00
2023-11-30T11:20:50.491Z,96089.78
2023-11-30T11:24:58.356Z,96095.81
2023-11-30T11:29:02.596Z,96100.06
2023-11-30T11:33:06.416Z,96079.28
2023-11-30T11:37:12.092Z,96087.69
2023-11-30T11:41:15.000Z,96082.41
2023-11-30T11:45:18.006Z,96073.63
2023-11-30T11:49:20.936Z,96068.34
2023-11-30T11:53:25.220Z,96057.94
2023-11-30T11:57:36.144Z,96066.41
2023-11-30T12:01:40.067Z,96063.84
2023-11-30T12:05:48.918Z,96072.34
2023-11-30T12:09:59.520Z,96058.28
2023-11-30T12:14:02.727Z,96065.66
2023-11-30T12:18:06.188Z,96069.88
2023-11-30T12:22:09.192Z,96067.19
2023-11-30T12:26:13.466Z,96058.25
2023-11-30T12:30:16.660Z,96070.03
2023-11-30T12:34:19.632Z,96067.44
2023-11-30T12:38:23.209Z,96050.06
2023-11-30T12:42:27.712Z,96055.22
2023-11-30T12:46:30.803Z,96059.38
2023-11-30T12:50:33.732Z,96063.56
2023-11-30T12:54:38.625Z,96061.50
2023-11-30T12:58:43.060Z,96074.41
2023-11-30T13:02:48.639Z,96080.31
2023-11-30T13:06:51.901Z,96076.78
2023-11-30T13:10:56.541Z,96071.00
2023-11-30T13:15:00.928Z,96063.44
2023-11-30T13:19:06.838Z,96067.78
2023-11-30T13:23:09.982Z,96061.78
2023-11-30T13:27:13.137Z,96060.13
2023-11-30T13:31:17.533Z,96049.03
2023-11-30T13:35:20.691Z,96044.88
2023-11-30T13:39:23.922Z,96046.75
2023-11-30T13:43:26.929Z,96039.94
2023-11-30T13:47:31.833Z,96038.25
2023-11-30T13:51:35.098Z,96041.59
2023-11-30T13:55:38.318Z,96050.81
2023-11-30T13:59:41.390Z,96054.13
2023-11-30T14:03:45.827Z,96050.81
2023-11-30T14:07:48.725Z,96046.38
2023-11-30T14:11:51.725Z,96040.28
2023-11-30T14:15:54.952Z,96034.16
2023-11-30T14:19:59.884Z,96035.81
2023-11-30T14:24:03.613Z,96030.84
2023-11-30T14:28:12.725Z,96031.69
2023-11-30T14:32:16.846Z,96048.03
2023-11-30T14:36:21.417Z,96055.69
2023-11-30T14:40:24.402Z,96052.19
2023-11-30T14:44:27.443Z,96061.50
2023-11-30T14:48:30.472Z,96080.53
2023-11-30T14:52:34.848Z,96076.06
2023-11-30T14:56:37.926Z,96081.97
2023-11-30T15:00:41.692Z,96074.22
2023-11-30T15:04:44.661Z,96075.13
2023-11-30T15:08:48.940Z,96063.13
2023-11-30T15:12:52.211Z,96059.63
2023-11-30T15:16:55.276Z,96068.31
2023-11-30T15:20:58.658Z,96063.22
2023-11-30T15:25:03.135Z,96068.31
2023-11-30T15:29:06.054Z,96063.13
2023-11-30T15:33:10.492Z,96068.31
2023-11-30T15:37:14.402Z,96069.16
2023-11-30T15:41:19.231Z,96054.44
2023-11-30T15:45:23.613Z,96064.78
2023-11-30T15:49:27.140Z,96067.28
2023-11-30T15:53:30.144Z,96062.72
2023-11-30T15:57:34.898Z,96079.91
2023-11-30T16:01:37.906Z,96087.50
2023-11-30T16:05:40.870Z,96092.66
2023-11-30T16:09:45.106Z,96088.59
2023-11-30T16:13:50.418Z,96056.75
2023-11-30T16:17:53.372Z,96071.44
2023-11-30T16:21:58.126Z,96097.09
2023-11-30T16:26:01.441Z,96096.69
2023-11-30T16:30:12.311Z,96086.88
2023-11-30T16:34:16.775Z,96068.78
2023-11-30T16:38:19.674Z,96076.00
2023-11-30T16:42:22.740Z,96068.44
2023-11-30T16:46:27.038Z,96075.38
2023-11-30T16:50:30.021Z,96079.50
2023-11-30T16:54:34.098Z,96071.75
2023-11-30T16:58:37.029Z,96079.50
2023-11-30T17:02:41.597Z,96086.34
2023-11-30T17:06:44.557Z,96087.09
2023-11-30T17:10:47.521Z,96084.41
2023-11-30T17:14:50.774Z,96104.06
2023-11-30T17:18:55.163Z,96094.34
2023-11-30T17:22:58.123Z,96091.56
2023-11-30T17:27:01.166Z,96091.56
2023-11-30T17:31:29.817Z,96080.56
2023-11-30T17:35:34.517Z,96080.56
2023-11-30T17:39:37.564Z,96094.25
2023-11-30T17:43:40.517Z,96082.22
2023-11-30T17:47:43.614Z,96089.06
2023-11-30T17:51:48.192Z,96070.22
2023-11-30T17:55:51.188Z,96073.66
2023-11-30T17:59:54.778Z,96064.84
2023-11-30T18:03:58.854Z,96057.81
2023-11-30T18:08:03.384Z,96056.88
2023-11-30T18:12:07.341Z,96050.78
2023-11-30T18:16:11.205Z,96031.13
2023-11-30T18:20:14.183Z,96014.97
2023-11-30T18:24:18.628Z,96014.03
2023-11-30T18:28:21.555Z,96030.19
2023-11-30T18:32:24.671Z,96029.16
2023-11-30T18:36:27.865Z,96056.47
2023-11-30T18:40:32.257Z,96087.25
2023-11-30T18:44:35.177Z,96096.34
2023-11-30T18:48:38.192Z,96100.19
2023-11-30T18:52:41.144Z,96081.84
2023-11-30T18:56:45.515Z,96114.56
2023-11-30T19:00:48.598Z,96119.03
2023-11-30T19:04:51.560Z,96111.28
2023-11-30T19:08:54.603Z,96105.16
2023-11-30T19:12:59.052Z,96110.13
2023-11-30T19:17:02.072Z,96100.53
2023-11-30T19:21:05.413Z,96110.66
2023-11-30T19:25:18.882Z,96143.38
2023-11-30T19:29:23.170Z,96133.97
2023-11-30T19:33:26.126Z,96128.25
2023-11-30T19:37:29.075Z,96133.22
2023-11-30T19:41:32.114Z,96120.09
2023-11-30T19:45:36.439Z,96108.88
2023-11-30T19:49:39.373Z,96107.16
2023-11-30T19:53:42.301Z,96112.31
2023-11-30T19:57:45.329Z,96115.63
2023-11-30T20:01:49.838Z,96125.78
2023-11-30T20:05:53.698Z,96125.50
2023-11-30T20:09:56.655Z,96133.97
2023-11-30T20:13:59.631Z,96134.28
2023-11-30T20:18:05.244Z,96130.22
2023-11-30T20:22:11.412Z,96138.22
2023-11-30T20:26:14.672Z,96144.94
2023-11-30T20:30:17.667Z,96146.50
2023-11-30T20:34:22.032Z,96147.94
2023-11-30T20:38:25.480Z,96147.75
2023-11-30T20:42:29.264Z,96143.19
2023-11-30T20:46:32.260Z,96124.97
2023-11-30T20:50:36.588Z,96128.50
2023-11-30T20:54:40.728Z,96144.03
2023-11-30T20:58:46.601Z,96138.09
2023-11-30T21:02:49.718Z,96146.09
2023-11-30T21:06:54.243Z,96131.78
2023-11-30T21:10:57.239Z,96136.31
2023-11-30T21:15:00.216Z,96122.78
2023-11-30T21:19:03.516Z,96111.59
2023-11-30T21:23:09.795Z,96115.84
2023-11-30T21:27:13.847Z,96117.50
2023-11-30T21:31:17.225Z,96113.97
2023-11-30T21:35:20.200Z,96117.28
2023-11-30T21:39:25.187Z,96107.84
2023-11-30T21:43:28.083Z,96122.69
2023-11-30T21:47:31.397Z,96121.00
2023-11-30T21:51:34.620Z,96123.50
2023-11-30T21:55:38.924Z,96131.38
2023-11-30T21:59:41.822Z,96133.97
2023-11-30T22:03:44.970Z,96119.47
2023-11-30T22:07:48.069Z,96124.22
2023-11-30T22:11:52.325Z,96113.94
2023-11-30T22:16:00.100Z,96112.09
2023-11-30T22:20:10.781Z,96105.88
2023-11-30T22:24:15.447Z,96109.63
2023-11-30T22:28:19.765Z,96114.91
2023-11-30T22:32:22.881Z,96122.56
2023-11-30T22:36:25.800Z,96115.81
2023-11-30T22:40:28.673Z,96125.97
2023-11-30T22:44:33.426Z,96119.97
2023-11-30T22:48:36.440Z,96131.88
2023-11-30T22:52:39.455Z,96124.94
2023-11-30T22:56:42.478Z,96134.25
2023-11-30T23:00:46.966Z,96114.91
2023-11-30T23:04:50.159Z,96106.22
2023-11-30T23:08:54.011Z,96109.63
2023-11-30T23:12:56.931Z,96103.41
2023-11-30T23:17:01.366Z,96117.09
2023-11-30T23:21:05.152Z,96101.22
2023-11-30T23:25:10.037Z,96099.38
2023-11-30T23:29:12.993Z,96100.31
2023-11-30T23:33:17.401Z,96085.81
2023-11-30T23:37:20.398Z,96081.78
2023-11-30T23:41:23.652Z,96088.81
2023-11-30T23:45:26.997Z,96096.38
2023-11-30T23:49:31.276Z,96094.72
2023-11-30T23:53:34.208Z,96084.38
2023-11-30T23:57:37.382Z,96093.88
